Time;durP1;ratioP1;P1;durP2;ratioP2;P2;SDS_P1;SDS_P2;PMS_P1;PMS_P2;Temp;Humidity;BMP_temperature;BMP_pressure;BME280_temperature;BME280_humidity;BME280_pressure;Samples;Min_cycle;Max_cycle;Signal;HPM_P1;HPM_P2
2022/10/27 00:01:59;;;;;;;19.52;8.23;;;;;;;;;;5087965;28;20052;-70
2022/10/27 00:04:25;;;;;;;20.27;8.85;;;;;;;;;;5087505;28;20141;-69
2022/10/27 00:06:51;;;;;;;21.40;9.27;;;;;;;;;;5086088;28;20117;-69
2022/10/27 00:09:17;;;;;;;19.00;8.30;;;;;;;;;;5081347;28;20113;-73
2022/10/27 00:11:43;;;;;;;20.02;7.80;;;;;;;;;;5077743;28;20044;-70
2022/10/27 00:14:09;;;;;;;20.67;7.97;;;;;;;;;;5086819;28;20070;-69
2022/10/27 00:16:35;;;;;;;24.65;7.35;;;;;;;;;;5086759;28;20756;-69
2022/10/27 00:19:01;;;;;;;21.45;7.88;;;;;;;;;;5084753;28;20419;-71
2022/10/27 00:21:27;;;;;;;20.27;8.02;;;;;;;;;;5079570;28;20106;-69
2022/10/27 00:23:53;;;;;;;22.20;7.55;;;;;;;;;;5089721;28;20054;-69
2022/10/27 00:26:20;;;;;;;19.60;7.70;;;;;;;;;;5087747;28;20459;-74
2022/10/27 00:28:47;;;;;;;19.88;8.10;;;;;;;;;;5070479;28;20112;-72
2022/10/27 00:31:14;;;;;;;18.70;7.78;;;;;;;;;;5089851;28;20083;-69
2022/10/27 00:33:41;;;;;;;18.13;7.10;;;;;;;;;;5088152;28;20066;-69
2022/10/27 00:36:11;;;;;;;20.05;7.47;;;;;;;;;;5082148;28;20123;-68
2022/10/27 00:38:37;;;;;;;17.00;7.00;;;;;;;;;;5076276;28;20131;-69
2022/10/27 00:41:04;;;;;;;18.25;7.70;;;;;;;;;;5082706;28;20055;-70
2022/10/27 00:43:34;;;;;;;17.30;7.38;;;;;;;;;;5070457;28;20056;-69
2022/10/27 00:46:11;;;;;;;19.15;7.65;;;;;;;;;;5086553;28;20441;-69
2022/10/27 00:48:37;;;;;;;26.90;7.72;;;;;;;;;;5087246;28;20052;-69
2022/10/27 00:51:03;;;;;;;20.20;8.60;;;;;;;;;;5085391;28;20059;-69
2022/10/27 00:53:30;;;;;;;17.52;7.93;;;;;;;;;;5080239;28;20128;-69
2022/10/27 00:55:56;;;;;;;22.75;9.20;;;;;;;;;;5081015;28;20404;-69
2022/10/27 00:58:22;;;;;;;20.55;9.18;;;;;;;;;;5083669;28;20044;-72
2022/10/27 01:00:48;;;;;;;22.27;8.93;;;;;;;;;;5083241;28;20040;-69
2022/10/27 01:03:17;;;;;;;22.13;10.00;;;;;;;;;;5083035;28;20507;-68
2022/10/27 01:05:44;;;;;;;18.33;8.85;;;;;;;;;;5090627;28;20099;-70
2022/10/27 01:08:10;;;;;;;24.33;10.27;;;;;;;;;;5091455;28;20220;-68
2022/10/27 01:10:36;;;;;;;20.48;9.98;;;;;;;;;;5087694;28;20108;-70
2022/10/27 01:13:02;;;;;;;23.88;10.60;;;;;;;;;;5090464;28;20051;-70
2022/10/27 01:15:40;;;;;;;19.80;9.88;;;;;;;;;;5090123;28;20131;-69
2022/10/27 01:18:12;;;;;;;26.55;10.98;;;;;;;;;;5090699;28;20158;-68
2022/10/27 01:20:45;;;;;;;22.65;10.07;;;;;;;;;;5088410;28;20044;-70
2022/10/27 01:23:11;;;;;;;20.75;9.30;;;;;;;;;;5090456;28;20396;-70
2022/10/27 01:25:43;;;;;;;25.48;9.77;;;;;;;;;;5090910;28;20082;-70
2022/10/27 01:28:09;;;;;;;22.75;9.93;;;;;;;;;;5090210;28;20079;-70
2022/10/27 01:30:54;;;;;;;23.02;10.23;;;;;;;;;;5087883;28;20048;-70
2022/10/27 01:33:24;;;;;;;25.65;9.57;;;;;;;;;;5086050;28;20169;-70
2022/10/27 01:36:02;;;;;;;20.02;10.43;;;;;;;;;;5070370;28;20206;-70
2022/10/27 01:38:30;;;;;;;20.90;10.52;;;;;;;;;;5069373;28;20177;-70
2022/10/27 01:41:06;;;;;;;26.75;10.60;;;;;;;;;;5070308;28;20499;-73
2022/10/27 01:43:34;;;;;;;26.10;11.13;;;;;;;;;;5077656;28;20438;-70
2022/10/27 01:46:02;;;;;;;22.65;11.00;;;;;;;;;;5081931;28;20061;-70
2022/10/27 01:48:28;;;;;;;24.45;11.55;;;;;;;;;;5076486;28;20054;-75
2022/10/27 01:50:54;;;;;;;;;;;;;;;;;;5084139;28;20076;-69
2022/10/27 01:53:20;;;;;;;24.02;10.60;;;;;;;;;;5068920;28;20016;-70
2022/10/27 01:55:55;;;;;;;22.10;10.52;;;;;;;;;;5078864;28;20055;-70
2022/10/27 01:58:37;;;;;;;24.67;11.18;;;;;;;;;;5087718;28;20376;-69
2022/10/27 02:01:03;;;;;;;27.95;12.10;;;;;;;;;;5085566;28;20090;-71
2022/10/27 02:03:42;;;;;;;25.55;12.55;;;;;;;;;;5082382;28;20078;-75
2022/10/27 02:06:15;;;;;;;26.42;12.10;;;;;;;;;;5083379;28;20465;-69
2022/10/27 02:08:58;;;;;;;21.98;12.70;;;;;;;;;;5071490;28;20048;-70
2022/10/27 02:11:24;;;;;;;28.27;13.95;;;;;;;;;;5073111;28;20044;-69
2022/10/27 02:13:51;;;;;;;24.67;13.43;;;;;;;;;;5069213;28;20101;-70
2022/10/27 02:16:25;;;;;;;27.45;13.38;;;;;;;;;;5071622;28;20075;-69
2022/10/27 02:18:53;;;;;;;23.08;13.13;;;;;;;;;;5084520;28;20596;-70
2022/10/27 02:21:20;;;;;;;25.15;13.05;;;;;;;;;;5085833;28;20127;-70
2022/10/27 02:23:46;;;;;;;26.35;13.98;;;;;;;;;;5075113;28;20048;-70
2022/10/27 02:26:21;;;;;;;27.60;14.07;;;;;;;;;;5087496;28;20064;-69
2022/10/27 02:28:47;;;;;;;25.52;13.90;;;;;;;;;;5074061;28;20109;-70
2022/10/27 02:31:15;;;;;;;25.75;13.63;;;;;;;;;;5083820;28;20048;-70
2022/10/27 02:33:42;;;;;;;25.83;14.77;;;;;;;;;;5085013;28;20096;-70
2022/10/27 02:36:08;;;;;;;24.67;13.50;;;;;;;;;;5075713;28;20049;-69
2022/10/27 02:38:34;;;;;;;25.75;14.13;;;;;;;;;;5077937;28;20066;-76
2022/10/27 02:41:00;;;;;;;26.17;13.77;;;;;;;;;;5077344;28;20074;-70
2022/10/27 02:43:26;;;;;;;26.45;14.35;;;;;;;;;;5069214;28;20124;-69
2022/10/27 02:45:52;;;;;;;28.08;15.07;;;;;;;;;;5087668;28;20039;-78
2022/10/27 02:48:18;;;;;;;23.92;14.18;;;;;;;;;;5087089;28;20452;-70
2022/10/27 02:50:44;;;;;;;26.73;14.20;;;;;;;;;;5075360;28;20036;-71
2022/10/27 02:53:10;;;;;;;25.67;14.60;;;;;;;;;;5076485;28;20199;-71
2022/10/27 02:55:37;;;;;;;23.63;14.93;;;;;;;;;;5067255;28;20044;-76
2022/10/27 02:58:03;;;;;;;28.00;16.08;;;;;;;;;;5077912;28;20558;-70
2022/10/27 03:00:29;;;;;;;25.88;14.68;;;;;;;;;;5082019;28;20039;-71
2022/10/27 03:02:55;;;;;;;28.15;15.07;;;;;;;;;;5085962;28;20040;-70
2022/10/27 03:05:21;;;;;;;26.38;14.35;;;;;;;;;;5085882;28;20391;-70
2022/10/27 03:07:47;;;;;;;24.33;13.20;;;;;;;;;;5083690;28;20386;-70
2022/10/27 03:10:13;;;;;;;28.17;15.27;;;;;;;;;;5068254;28;20131;-71
2022/10/27 03:12:39;;;;;;;29.73;14.70;;;;;;;;;;5079090;28;20380;-81
2022/10/27 03:15:05;;;;;;;29.40;14.82;;;;;;;;;;5082819;28;20036;-71
2022/10/27 03:17:31;;;;;;;29.48;14.65;;;;;;;;;;5087865;28;20056;-70
2022/10/27 03:19:57;;;;;;;28.13;14.95;;;;;;;;;;5077040;28;20149;-70
2022/10/27 03:22:23;;;;;;;29.23;15.75;;;;;;;;;;5079497;28;20052;-70
2022/10/27 03:24:49;;;;;;;30.55;14.90;;;;;;;;;;5083205;28;20047;-69
2022/10/27 03:27:16;;;;;;;27.83;14.85;;;;;;;;;;5084644;28;20083;-69
2022/10/27 03:29:42;;;;;;;27.50;14.60;;;;;;;;;;5086175;28;20040;-71
2022/10/27 03:32:08;;;;;;;27.08;14.65;;;;;;;;;;5085888;28;20047;-69
2022/10/27 03:34:34;;;;;;;24.15;14.25;;;;;;;;;;5068647;28;20333;-70
2022/10/27 03:37:00;;;;;;;23.90;14.13;;;;;;;;;;5079382;28;20538;-70
2022/10/27 03:39:26;;;;;;;27.88;14.07;;;;;;;;;;5083674;28;20364;-70
2022/10/27 03:41:52;;;;;;;27.25;14.15;;;;;;;;;;5073361;28;20503;-70
2022/10/27 03:44:18;;;;;;;27.75;13.15;;;;;;;;;;5073893;28;20139;-71
2022/10/27 03:46:44;;;;;;;27.33;14.30;;;;;;;;;;5066659;28;20511;-71
2022/10/27 03:49:10;;;;;;;24.20;13.18;;;;;;;;;;5068212;28;20049;-70
2022/10/27 03:51:36;;;;;;;23.83;13.52;;;;;;;;;;5075543;28;20055;-71
2022/10/27 03:54:02;;;;;;;24.35;12.82;;;;;;;;;;5076064;28;20202;-70
2022/10/27 03:56:28;;;;;;;29.52;15.68;;;;;;;;;;5073669;28;20067;-69
2022/10/27 03:58:54;;;;;;;23.92;14.43;;;;;;;;;;5089013;28;20048;-71
2022/10/27 04:01:20;;;;;;;26.30;14.85;;;;;;;;;;5084016;28;20132;-70
2022/10/27 04:03:47;;;;;;;25.20;14.52;;;;;;;;;;5090031;28;20105;-71
2022/10/27 04:06:13;;;;;;;26.75;14.52;;;;;;;;;;5072778;28;20059;-69
2022/10/27 04:08:39;;;;;;;23.50;14.90;;;;;;;;;;5071419;28;20122;-68
2022/10/27 04:11:05;;;;;;;30.02;14.52;;;;;;;;;;5071415;28;20520;-71
2022/10/27 04:13:32;;;;;;;24.92;13.90;;;;;;;;;;5081061;28;20101;-71
2022/10/27 04:16:01;;;;;;;24.48;14.15;;;;;;;;;;5076802;28;20063;-70
2022/10/27 04:18:27;;;;;;;29.10;15.23;;;;;;;;;;5070873;28;20088;-68
2022/10/27 04:20:53;;;;;;;23.80;14.75;;;;;;;;;;5078574;28;20067;-70
2022/10/27 04:23:19;;;;;;;25.45;14.35;;;;;;;;;;5091684;28;20118;-69
2022/10/27 04:25:45;;;;;;;24.75;14.45;;;;;;;;;;5082859;28;20150;-70
2022/10/27 04:28:11;;;;;;;32.70;15.65;;;;;;;;;;5071004;28;20064;-70
2022/10/27 04:30:37;;;;;;;25.48;14.32;;;;;;;;;;5071683;28;20142;-70
2022/10/27 04:33:03;;;;;;;23.98;14.05;;;;;;;;;;5070485;28;20045;-70
2022/10/27 04:35:29;;;;;;;;;;;;;;;;;;5070330;28;20128;-70
2022/10/27 04:37:55;;;;;;;25.70;15.15;;;;;;;;;;5088297;28;19939;-70
2022/10/27 04:40:22;;;;;;;25.25;16.23;;;;;;;;;;5091064;28;20091;-69
2022/10/27 04:42:48;;;;;;;33.42;16.90;;;;;;;;;;5073980;28;20040;-75
2022/10/27 04:45:14;;;;;;;24.90;15.43;;;;;;;;;;5083648;28;20115;-69
2022/10/27 04:47:40;;;;;;;30.80;17.42;;;;;;;;;;5089148;28;20418;-69
2022/10/27 04:50:06;;;;;;;29.23;16.40;;;;;;;;;;5089481;28;20384;-73
2022/10/27 04:52:32;;;;;;;;;;;;;;;;;;5079487;28;20120;-68
2022/10/27 04:54:58;;;;;;;32.72;17.27;;;;;;;;;;5082314;28;20023;-69
2022/10/27 04:57:24;;;;;;;29.15;17.67;;;;;;;;;;5077746;28;20048;-68
2022/10/27 04:59:50;;;;;;;33.70;17.40;;;;;;;;;;5082267;28;20060;-73
2022/10/27 05:02:16;;;;;;;27.80;16.95;;;;;;;;;;5073683;28;20072;-70
2022/10/27 05:04:42;;;;;;;31.50;17.48;;;;;;;;;;5090484;28;20425;-69
2022/10/27 05:07:08;;;;;;;28.88;17.52;;;;;;;;;;5066263;28;20448;-70
2022/10/27 05:09:34;;;;;;;29.20;17.88;;;;;;;;;;5084285;28;20044;-70
2022/10/27 05:12:00;;;;;;;30.98;17.23;;;;;;;;;;5081520;28;20108;-68
2022/10/27 05:14:26;;;;;;;29.25;16.73;;;;;;;;;;5088942;28;20123;-67
2022/10/27 05:16:52;;;;;;;30.33;16.98;;;;;;;;;;5087293;28;20051;-68
2022/10/27 05:19:19;;;;;;;26.58;15.77;;;;;;;;;;5089499;28;20095;-69
2022/10/27 05:21:45;;;;;;;31.65;17.33;;;;;;;;;;5083140;28;20150;-68
2022/10/27 05:24:11;;;;;;;29.13;16.67;;;;;;;;;;5077586;28;20063;-69
2022/10/27 05:26:37;;;;;;;25.48;16.63;;;;;;;;;;5082185;28;20488;-68
2022/10/27 05:29:03;;;;;;;30.88;16.58;;;;;;;;;;5087204;28;20043;-67
2022/10/27 05:31:29;;;;;;;28.40;16.80;;;;;;;;;;5082478;28;20048;-68
2022/10/27 05:33:55;;;;;;;28.58;16.58;;;;;;;;;;5087971;28;20332;-68
2022/10/27 05:36:21;;;;;;;28.55;16.15;;;;;;;;;;5072999;28;20052;-68
2022/10/27 05:38:47;;;;;;;26.85;15.85;;;;;;;;;;5081932;28;20193;-69
2022/10/27 05:41:13;;;;;;;28.08;16.33;;;;;;;;;;5081278;28;20079;-68
2022/10/27 05:43:40;;;;;;;;;;;;;;;;;;5086928;28;20088;-67
2022/10/27 05:46:07;;;;;;;30.63;16.65;;;;;;;;;;5087046;28;19931;-67
2022/10/27 05:48:33;;;;;;;;;;;;;;;;;;5089104;28;20079;-68
2022/10/27 05:50:59;;;;;;;31.95;16.55;;;;;;;;;;5089662;28;20355;-67
2022/10/27 05:53:25;;;;;;;30.13;16.48;;;;;;;;;;5090153;28;20162;-68
2022/10/27 05:55:54;;;;;;;27.67;16.08;;;;;;;;;;5083708;28;20048;-70
2022/10/27 05:58:21;;;;;;;28.13;16.77;;;;;;;;;;5079770;28;20109;-68
2022/10/27 06:00:47;;;;;;;30.35;17.00;;;;;;;;;;5069069;28;20040;-69
2022/10/27 06:03:20;;;;;;;30.13;16.23;;;;;;;;;;5077465;28;20065;-69
2022/10/27 06:05:47;;;;;;;30.63;16.67;;;;;;;;;;5087766;28;20131;-70
2022/10/27 06:08:13;;;;;;;34.78;23.38;;;;;;;;;;5088175;28;20341;-68
2022/10/27 06:10:39;;;;;;;31.60;17.90;;;;;;;;;;5082752;28;20044;-68
2022/10/27 06:13:07;;;;;;;30.67;17.77;;;;;;;;;;5086467;28;20065;-68
2022/10/27 06:15:33;;;;;;;33.40;18.42;;;;;;;;;;5089508;28;20494;-67
2022/10/27 06:17:59;;;;;;;30.13;17.65;;;;;;;;;;5075495;28;20048;-68
2022/10/27 06:20:26;;;;;;;30.60;17.30;;;;;;;;;;5071644;28;20060;-68
2022/10/27 06:22:52;;;;;;;26.83;17.25;;;;;;;;;;5068533;28;20040;-68
2022/10/27 06:25:18;;;;;;;29.48;18.42;;;;;;;;;;5073364;28;20124;-68
2022/10/27 06:27:44;;;;;;;31.10;18.17;;;;;;;;;;5068895;28;20056;-66
2022/10/27 06:30:11;;;;;;;30.00;18.45;;;;;;;;;;5068468;28;20054;-68
2022/10/27 06:32:40;;;;;;;28.75;18.08;;;;;;;;;;5068814;28;20483;-67
2022/10/27 06:35:07;;;;;;;31.05;18.38;;;;;;;;;;5070986;28;20090;-69
2022/10/27 06:37:33;;;;;;;32.45;18.58;;;;;;;;;;5071944;28;20385;-69
2022/10/27 06:39:59;;;;;;;27.83;18.10;;;;;;;;;;5086852;28;20181;-69
2022/10/27 06:42:25;;;;;;;35.55;18.75;;;;;;;;;;5082970;28;20055;-69
2022/10/27 06:44:51;;;;;;;27.23;18.02;;;;;;;;;;5089127;28;20052;-69
2022/10/27 06:47:18;;;;;;;31.38;18.23;;;;;;;;;;5069972;28;20044;-66
2022/10/27 06:49:44;;;;;;;29.25;17.85;;;;;;;;;;5068822;28;20147;-68
2022/10/27 06:52:10;;;;;;;30.92;19.70;;;;;;;;;;5081442;28;20066;-70
2022/10/27 06:54:36;;;;;;;30.42;19.52;;;;;;;;;;5076560;28;20124;-67
2022/10/27 06:57:02;;;;;;;29.10;18.95;;;;;;;;;;5098205;28;20043;-68
2022/10/27 06:59:28;;;;;;;31.15;18.27;;;;;;;;;;5108416;28;20050;-69
2022/10/27 07:01:54;;;;;;;27.33;18.13;;;;;;;;;;5096717;28;20527;-68
2022/10/27 07:04:20;;;;;;;29.75;18.10;;;;;;;;;;5076476;28;20467;-69
2022/10/27 07:06:46;;;;;;;27.13;17.90;;;;;;;;;;5084288;28;20048;-70
2022/10/27 07:09:13;;;;;;;27.92;16.90;;;;;;;;;;5075168;28;20052;-73
2022/10/27 07:11:39;;;;;;;27.17;18.00;;;;;;;;;;5084378;28;20059;-69
2022/10/27 07:14:05;;;;;;;30.67;17.92;;;;;;;;;;5070630;28;20134;-72
2022/10/27 07:16:31;;;;;;;25.95;17.38;;;;;;;;;;5069303;28;20069;-67
2022/10/27 07:18:57;;;;;;;25.58;17.50;;;;;;;;;;5085400;28;20076;-68
2022/10/27 07:21:23;;;;;;;29.88;18.65;;;;;;;;;;5082158;28;20163;-68
2022/10/27 07:23:50;;;;;;;32.25;18.85;;;;;;;;;;5088295;28;20104;-68
2022/10/27 07:26:16;;;;;;;27.55;17.65;;;;;;;;;;5082049;28;20135;-69
2022/10/27 07:28:42;;;;;;;30.77;18.63;;;;;;;;;;5086080;28;20043;-68
2022/10/27 07:31:08;;;;;;;26.73;17.05;;;;;;;;;;5072729;28;20095;-72
2022/10/27 07:33:34;;;;;;;33.97;16.75;;;;;;;;;;5069635;28;20101;-69
2022/10/27 07:36:01;;;;;;;28.92;16.88;;;;;;;;;;5083019;28;20532;-68
2022/10/27 07:38:27;;;;;;;26.63;16.40;;;;;;;;;;5087606;28;20052;-69
2022/10/27 07:40:55;;;;;;;25.25;16.50;;;;;;;;;;5076268;28;20472;-71
2022/10/27 07:43:21;;;;;;;28.55;15.35;;;;;;;;;;5081750;28;20432;-71
2022/10/27 07:45:47;;;;;;;28.00;16.02;;;;;;;;;;5076866;28;20044;-71
2022/10/27 07:48:14;;;;;;;30.33;16.20;;;;;;;;;;5077141;28;20484;-71
2022/10/27 07:50:41;;;;;;;25.58;15.43;;;;;;;;;;5078421;28;20047;-69
2022/10/27 07:53:07;;;;;;;29.13;15.10;;;;;;;;;;5067833;28;20044;-70
2022/10/27 07:55:35;;;;;;;22.38;15.27;;;;;;;;;;5074959;28;20041;-69
2022/10/27 07:58:11;;;;;;;25.65;15.65;;;;;;;;;;5082764;28;20051;-75
2022/10/27 08:00:38;;;;;;;30.52;15.65;;;;;;;;;;5081671;28;20177;-69
2022/10/27 08:03:06;;;;;;;27.38;14.73;;;;;;;;;;5073144;28;20453;-70
2022/10/27 08:05:33;;;;;;;29.10;13.63;;;;;;;;;;5076796;28;20088;-70
2022/10/27 08:07:59;;;;;;;22.27;13.70;;;;;;;;;;5068178;28;20496;-70
2022/10/27 08:10:32;;;;;;;22.45;13.13;;;;;;;;;;5067232;28;20141;-70
2022/10/27 08:12:58;;;;;;;24.65;12.77;;;;;;;;;;5073601;28;20036;-70
2022/10/27 08:15:25;;;;;;;24.02;13.95;;;;;;;;;;5088303;28;20093;-70
2022/10/27 08:17:56;;;;;;;27.30;12.98;;;;;;;;;;5088393;28;20512;-71
2022/10/27 08:20:23;;;;;;;26.15;13.82;;;;;;;;;;5087600;28;20361;-69
2022/10/27 08:22:49;;;;;;;;;;;;;;;;;;5085947;28;20188;-71
2022/10/27 08:25:15;;;;;;;25.80;12.57;;;;;;;;;;5068257;28;19921;-71
2022/10/27 08:27:41;;;;;;;25.40;12.77;;;;;;;;;;5066841;28;20408;-70
2022/10/27 08:30:08;;;;;;;23.85;12.70;;;;;;;;;;5068251;28;20532;-70
2022/10/27 08:32:33;;;;;;;;;;;;;;;;;;5066885;28;20119;-71
2022/10/27 08:35:00;;;;;;;20.45;11.15;;;;;;;;;;5067366;28;20016;-68
2022/10/27 08:37:26;;;;;;;20.33;11.07;;;;;;;;;;5068663;28;20234;-70
2022/10/27 08:39:52;;;;;;;21.85;11.88;;;;;;;;;;5071518;28;20111;-70
2022/10/27 08:42:21;;;;;;;20.73;11.27;;;;;;;;;;5070893;28;20106;-70
2022/10/27 08:44:47;;;;;;;22.35;10.77;;;;;;;;;;5080949;28;20135;-70
2022/10/27 08:47:18;;;;;;;18.63;10.38;;;;;;;;;;5091634;28;20459;-70
2022/10/27 08:49:48;;;;;;;19.52;10.40;;;;;;;;;;5091854;28;20062;-70
2022/10/27 08:52:27;;;;;;;21.90;10.43;;;;;;;;;;5091436;28;20092;-70
2022/10/27 08:55:02;;;;;;;17.58;9.32;;;;;;;;;;5082043;28;20114;-69
2022/10/27 08:57:31;;;;;;;18.77;9.57;;;;;;;;;;5070608;28;20055;-69
2022/10/27 08:59:57;;;;;;;20.77;9.15;;;;;;;;;;5076992;28;20044;-69
2022/10/27 09:02:33;;;;;;;30.23;11.85;;;;;;;;;;5089742;28;20048;-70
2022/10/27 09:05:18;;;;;;;19.55;9.02;;;;;;;;;;5086784;28;20475;-68
2022/10/27 09:07:51;;;;;;;17.42;9.00;;;;;;;;;;5088307;28;20157;-69
2022/10/27 09:10:26;;;;;;;17.13;8.57;;;;;;;;;;5091153;28;20054;-69
2022/10/27 09:12:57;;;;;;;19.35;7.90;;;;;;;;;;5091368;28;20079;-67
2022/10/27 09:15:24;;;;;;;16.80;8.00;;;;;;;;;;5086075;28;20040;-70
2022/10/27 09:17:50;;;;;;;16.27;7.97;;;;;;;;;;5089895;28;20271;-72
2022/10/27 09:20:16;;;;;;;18.75;7.45;;;;;;;;;;5091184;28;20151;-69
2022/10/27 09:22:42;;;;;;;44.42;11.27;;;;;;;;;;5090569;28;20364;-71
2022/10/27 09:25:21;;;;;;;18.55;7.25;;;;;;;;;;5091099;28;20271;-69
2022/10/27 09:27:51;;;;;;;18.63;7.28;;;;;;;;;;5071371;28;20099;-72
2022/10/27 09:30:17;;;;;;;16.50;6.90;;;;;;;;;;5070566;28;20076;-74
2022/10/27 09:32:48;;;;;;;14.98;6.88;;;;;;;;;;5075111;28;20627;-72
2022/10/27 09:35:16;;;;;;;19.35;7.25;;;;;;;;;;5074742;28;20098;-75
2022/10/27 09:37:43;;;;;;;27.95;6.50;;;;;;;;;;5085854;28;20394;-73
2022/10/27 09:40:13;;;;;;;19.00;6.68;;;;;;;;;;5090062;28;20043;-74
2022/10/27 09:42:40;;;;;;;18.92;6.53;;;;;;;;;;5085978;28;20044;-73
2022/10/27 09:45:17;;;;;;;55.55;12.90;;;;;;;;;;5087753;28;20043;-72
2022/10/27 09:47:45;;;;;;;20.27;7.32;;;;;;;;;;5083715;28;20036;-72
2022/10/27 09:50:19;;;;;;;16.83;6.65;;;;;;;;;;5076279;28;20049;-72
2022/10/27 09:52:45;;;;;;;15.90;5.90;;;;;;;;;;5074472;28;20644;-71
2022/10/27 09:55:12;;;;;;;14.98;6.65;;;;;;;;;;5102187;28;20120;-73
2022/10/27 09:57:40;;;;;;;14.18;6.00;;;;;;;;;;5075267;28;20135;-72
2022/10/27 10:00:26;;;;;;;14.85;6.25;;;;;;;;;;5076947;28;20448;-74
2022/10/27 10:03:25;;;;;;;17.25;6.07;;;;;;;;;;5083209;28;20052;-72
2022/10/27 10:05:58;;;;;;;18.77;6.47;;;;;;;;;;5071877;28;20066;-72
2022/10/27 10:08:25;;;;;;;14.32;5.82;;;;;;;;;;5080476;28;20048;-71
2022/10/27 10:10:54;;;;;;;14.73;5.50;;;;;;;;;;5083622;28;20080;-73
2022/10/27 10:13:21;;;;;;;14.80;5.85;;;;;;;;;;5086510;28;20040;-72
2022/10/27 10:15:48;;;;;;;13.07;5.28;;;;;;;;;;5072994;28;20105;-71
2022/10/27 10:18:23;;;;;;;15.43;5.28;;;;;;;;;;5068886;28;20040;-74
2022/10/27 10:20:56;;;;;;;13.40;5.25;;;;;;;;;;5069252;28;20044;-73
2022/10/27 10:23:23;;;;;;;13.60;5.53;;;;;;;;;;5082001;28;20451;-73
2022/10/27 10:25:51;;;;;;;15.48;5.07;;;;;;;;;;5089214;28;20162;-69
2022/10/27 10:28:30;;;;;;;13.43;4.65;;;;;;;;;;5089021;28;20516;-72
2022/10/27 10:30:56;;;;;;;12.27;4.57;;;;;;;;;;5081241;28;20048;-73
2022/10/27 10:33:24;;;;;;;13.23;4.97;;;;;;;;;;5086597;28;20188;-72
2022/10/27 10:35:51;;;;;;;12.05;4.78;;;;;;;;;;5078869;28;20645;-72
2022/10/27 10:38:23;;;;;;;11.55;4.07;;;;;;;;;;5069338;28;20044;-73
2022/10/27 10:41:00;;;;;;;11.57;4.50;;;;;;;;;;5070512;28;20044;-72
2022/10/27 10:43:26;;;;;;;11.90;3.78;;;;;;;;;;5070489;28;20086;-72
2022/10/27 10:45:53;;;;;;;12.45;3.92;;;;;;;;;;5068211;28;20144;-69
2022/10/27 10:48:19;;;;;;;;;;;;;;;;;;5071020;28;20063;-70
2022/10/27 10:50:46;;;;;;;13.45;4.05;;;;;;;;;;5068442;28;19931;-70
2022/10/27 10:53:20;;;;;;;16.02;5.22;;;;;;;;;;5067769;28;20125;-73
2022/10/27 10:55:47;;;;;;;12.73;3.75;;;;;;;;;;5079348;28;20142;-66
2022/10/27 10:58:13;;;;;;;;;;;;;;;;;;5073193;28;20044;-73
2022/10/27 11:00:50;;;;;;;15.02;3.60;;;;;;;;;;5080636;28;19920;-67
2022/10/27 11:03:18;;;;;;;11.38;3.45;;;;;;;;;;5077954;28;20128;-72
2022/10/27 11:05:44;;;;;;;10.63;3.80;;;;;;;;;;5084391;28;20144;-69
2022/10/27 11:08:10;;;;;;;;;;;;;;;;;;5079706;28;20067;-71
2022/10/27 11:10:38;;;;;;;13.60;3.67;;;;;;;;;;5072601;28;20344;-66
2022/10/27 11:13:20;;;;;;;10.10;3.50;;;;;;;;;;5078340;28;20036;-71
2022/10/27 11:16:15;;;;;;;12.38;3.50;;;;;;;;;;5069965;28;20578;-68
2022/10/27 11:18:45;;;;;;;12.65;4.07;;;;;;;;;;5063209;28;20067;-65
2022/10/27 11:21:28;;;;;;;10.25;2.80;;;;;;;;;;5072987;28;20135;-69
2022/10/27 11:24:14;;;;;;;10.20;3.17;;;;;;;;;;5048743;28;20318;-69
2022/10/27 11:26:43;;;;;;;10.63;3.20;;;;;;;;;;5070793;28;20079;-69
2022/10/27 11:29:25;;;;;;;8.90;2.95;;;;;;;;;;5087064;28;20079;-69
2022/10/27 11:32:09;;;;;;;12.60;2.90;;;;;;;;;;5079456;28;20055;-68
2022/10/27 11:34:41;;;;;;;12.13;3.17;;;;;;;;;;5072686;28;20208;-69
2022/10/27 11:37:26;;;;;;;10.45;3.20;;;;;;;;;;5073738;28;20040;-69
2022/10/27 11:40:22;;;;;;;10.27;3.28;;;;;;;;;;5066719;28;20052;-68
2022/10/27 11:42:57;;;;;;;9.70;2.80;;;;;;;;;;5047385;28;20065;-69
2022/10/27 11:45:25;;;;;;;10.95;3.00;;;;;;;;;;5080970;28;20115;-69
2022/10/27 11:47:57;;;;;;;10.13;3.20;;;;;;;;;;5080273;28;20100;-69
2022/10/27 11:50:42;;;;;;;9.18;2.50;;;;;;;;;;5083417;28;20116;-66
2022/10/27 11:53:09;;;;;;;8.52;2.80;;;;;;;;;;5086291;28;20047;-69
2022/10/27 11:55:53;;;;;;;8.30;2.63;;;;;;;;;;5077271;28;20491;-71
2022/10/27 11:58:38;;;;;;;9.85;2.78;;;;;;;;;;5082914;28;20044;-70
2022/10/27 12:01:13;;;;;;;9.98;2.70;;;;;;;;;;5073860;28;20465;-70
2022/10/27 12:03:47;;;;;;;10.30;2.80;;;;;;;;;;5068440;28;20051;-67
2022/10/27 12:06:22;;;;;;;10.70;2.90;;;;;;;;;;5073170;28;20078;-71
2022/10/27 12:08:48;;;;;;;11.73;3.08;;;;;;;;;;5071928;28;20123;-70
2022/10/27 12:11:19;;;;;;;9.05;2.92;;;;;;;;;;5088134;28;20051;-70
2022/10/27 12:14:00;;;;;;;13.73;3.30;;;;;;;;;;5090012;28;20116;-68
2022/10/27 12:16:32;;;;;;;10.15;2.50;;;;;;;;;;5071622;28;20075;-67
2022/10/27 12:19:10;;;;;;;9.10;2.60;;;;;;;;;;5071121;28;20052;-71
2022/10/27 12:21:54;;;;;;;10.98;3.40;;;;;;;;;;5071273;28;20053;-73
2022/10/27 12:24:20;;;;;;;11.05;2.83;;;;;;;;;;5071557;28;20072;-71
2022/10/27 12:26:52;;;;;;;10.45;3.00;;;;;;;;;;5072188;28;20055;-73
2022/10/27 12:29:19;;;;;;;11.23;2.70;;;;;;;;;;5079243;28;20376;-72
2022/10/27 12:31:49;;;;;;;8.50;2.63;;;;;;;;;;5091032;28;20048;-70
2022/10/27 12:34:16;;;;;;;9.57;3.00;;;;;;;;;;5092152;28;20039;-73
2022/10/27 12:36:42;;;;;;;8.90;2.90;;;;;;;;;;5086253;28;20373;-72
2022/10/27 12:39:20;;;;;;;14.90;3.00;;;;;;;;;;5080561;28;20039;-71
2022/10/27 12:41:51;;;;;;;9.38;2.70;;;;;;;;;;5090209;28;20056;-70
2022/10/27 12:44:26;;;;;;;9.52;2.70;;;;;;;;;;5091890;28;20066;-66
2022/10/27 12:46:58;;;;;;;8.85;2.53;;;;;;;;;;5087336;28;20185;-71
2022/10/27 12:49:39;;;;;;;13.07;3.00;;;;;;;;;;5071332;28;20093;-71
2022/10/27 12:52:20;;;;;;;12.60;3.17;;;;;;;;;;5071227;28;20064;-72
2022/10/27 12:54:47;;;;;;;10.80;2.90;;;;;;;;;;5071050;28;20044;-76
2022/10/27 12:57:13;;;;;;;8.75;2.60;;;;;;;;;;5072442;28;20205;-73
2022/10/27 12:59:42;;;;;;;15.93;2.92;;;;;;;;;;5073099;28;20516;-72
2022/10/27 13:02:09;;;;;;;12.88;3.15;;;;;;;;;;5070646;28;20079;-66
2022/10/27 13:04:56;;;;;;;10.63;3.17;;;;;;;;;;5071417;28;20037;-71
2022/10/27 13:07:22;;;;;;;13.23;3.05;;;;;;;;;;5067733;28;20503;-69
2022/10/27 13:10:07;;;;;;;10.95;2.88;;;;;;;;;;5082444;28;20423;-70
2022/10/27 13:12:52;;;;;;;11.25;3.38;;;;;;;;;;5091727;28;20097;-72
2022/10/27 13:15:34;;;;;;;11.70;3.03;;;;;;;;;;5091217;28;20511;-82
2022/10/27 13:18:18;;;;;;;11.82;2.85;;;;;;;;;;5090707;28;20501;-73
2022/10/27 13:20:44;;;;;;;10.68;2.72;;;;;;;;;;5072295;28;20122;-72
2022/10/27 13:23:29;;;;;;;11.75;4.10;;;;;;;;;;5069884;28;20056;-74
2022/10/27 13:26:06;;;;;;;15.65;6.18;;;;;;;;;;5070375;28;20135;-72
2022/10/27 13:28:36;;;;;;;11.70;4.05;;;;;;;;;;5071370;28;20139;-75
2022/10/27 13:31:04;;;;;;;10.20;3.17;;;;;;;;;;5072527;28;20101;-76
2022/10/27 13:33:37;;;;;;;11.40;2.95;;;;;;;;;;5082694;28;20105;-77
2022/10/27 13:36:18;;;;;;;8.60;2.75;;;;;;;;;;5077836;28;20048;-76
2022/10/27 13:38:45;;;;;;;8.75;2.63;;;;;;;;;;5070327;28;20048;-67
2022/10/27 13:41:11;;;;;;;;;;;;;;;;;;5069204;28;20669;-79
2022/10/27 13:43:37;;;;;;;13.10;3.40;;;;;;;;;;5069140;28;20031;-75
2022/10/27 13:46:03;;;;;;;10.57;3.10;;;;;;;;;;5070417;28;20453;-73
2022/10/27 13:48:33;;;;;;;13.25;3.00;;;;;;;;;;5070552;28;20041;-72
2022/10/27 13:51:19;;;;;;;12.85;2.80;;;;;;;;;;5083131;28;20147;-79
2022/10/27 13:53:45;;;;;;;10.02;2.55;;;;;;;;;;5088747;28;20059;-76
2022/10/27 13:56:14;;;;;;;9.70;2.47;;;;;;;;;;5073722;28;20044;-75
2022/10/27 13:58:46;;;;;;;12.05;2.97;;;;;;;;;;5070847;28;20040;-78
2022/10/27 14:01:18;;;;;;;10.43;3.00;;;;;;;;;;5069179;28;20041;-78
2022/10/27 14:04:02;;;;;;;10.93;3.25;;;;;;;;;;5070465;28;20044;-77
2022/10/27 14:06:31;;;;;;;13.32;3.20;;;;;;;;;;5080796;28;20053;-69
2022/10/27 14:09:03;;;;;;;11.35;3.20;;;;;;;;;;5088198;28;20047;-70
2022/10/27 14:11:30;;;;;;;16.23;3.13;;;;;;;;;;5080734;28;20040;-76
2022/10/27 14:14:02;;;;;;;11.45;3.28;;;;;;;;;;5088167;28;20225;-73
2022/10/27 14:16:35;;;;;;;13.18;3.05;;;;;;;;;;5081243;28;20139;-72
2022/10/27 14:19:04;;;;;;;12.55;3.42;;;;;;;;;;5087081;28;20044;-71
2022/10/27 14:21:32;;;;;;;14.15;3.65;;;;;;;;;;5088581;28;20401;-68
2022/10/27 14:24:10;;;;;;;10.90;3.20;;;;;;;;;;5087197;28;20471;-73
2022/10/27 14:26:37;;;;;;;9.60;3.22;;;;;;;;;;5083056;28;20522;-68
2022/10/27 14:29:04;;;;;;;9.38;3.28;;;;;;;;;;5083480;28;20106;-69
2022/10/27 14:31:32;;;;;;;13.18;3.60;;;;;;;;;;5077619;28;20040;-70
2022/10/27 14:34:14;;;;;;;16.25;4.18;;;;;;;;;;5084938;28;20076;-80
2022/10/27 14:36:40;;;;;;;9.13;3.10;;;;;;;;;;5071935;28;20095;-69
2022/10/27 14:39:06;;;;;;;;;;;;;;;;;;5086114;28;20059;-69
2022/10/27 14:41:33;;;;;;;11.38;3.47;;;;;;;;;;5080106;28;19920;-69